sensor_id;sensor_type;location;lat;lon;timestamp;pressure;altitude;pressure_sealevel;temperature;humidity
68141;BME280;54941;52.220;104.306;2023-07-31T00:00:33;95589.38;;;22.23;69.61
68141;BME280;54941;52.220;104.306;2023-07-31T00:02:59;95592.34;;;21.96;70.46
68141;BME280;54941;52.220;104.306;2023-07-31T00:05:25;95586.28;;;22.39;68.70
68141;BME280;54941;52.220;104.306;2023-07-31T00:07:52;95583.34;;;23.08;64.91
68141;BME280;54941;52.220;104.306;2023-07-31T00:10:18;95582.16;;;22.78;66.14
68141;BME280;54941;52.220;104.306;2023-07-31T00:12:47;95583.16;;;22.66;66.92
68141;BME280;54941;52.220;104.306;2023-07-31T00:15:14;95589.78;;;22.84;66.52
68141;BME280;54941;52.220;104.306;2023-07-31T00:17:40;95581.56;;;22.75;66.80
68141;BME280;54941;52.220;104.306;2023-07-31T00:20:07;95587.69;;;22.88;66.77
68141;BME280;54941;52.220;104.306;2023-07-31T00:22:34;95587.38;;;23.02;66.87
68141;BME280;54941;52.220;104.306;2023-07-31T00:25:01;95592.56;;;22.83;67.21
68141;BME280;54941;52.220;104.306;2023-07-31T00:27:29;95589.66;;;22.63;67.99
68141;BME280;54941;52.220;104.306;2023-07-31T00:29:57;95580.09;;;22.82;68.18
68141;BME280;54941;52.220;104.306;2023-07-31T00:32:23;95572.81;;;23.05;68.57
68141;BME280;54941;52.220;104.306;2023-07-31T00:34:50;95574.66;;;23.25;66.35
68141;BME280;54941;52.220;104.306;2023-07-31T00:37:16;95569.03;;;23.49;65.61
68141;BME280;54941;52.220;104.306;2023-07-31T00:39:45;95577.09;;;23.60;64.87
68141;BME280;54941;52.220;104.306;2023-07-31T00:42:11;95576.75;;;23.53;64.43
68141;BME280;54941;52.220;104.306;2023-07-31T00:44:37;95571.38;;;23.74;63.75
68141;BME280;54941;52.220;104.306;2023-07-31T00:47:08;95565.78;;;23.66;64.14
68141;BME280;54941;52.220;104.306;2023-07-31T00:49:34;95579.06;;;23.58;65.29
68141;BME280;54941;52.220;104.306;2023-07-31T00:52:01;95569.63;;;23.32;65.07
68141;BME280;54941;52.220;104.306;2023-07-31T00:54:27;95567.72;;;23.22;65.84
68141;BME280;54941;52.220;104.306;2023-07-31T00:56:54;95572.97;;;22.92;66.40
68141;BME280;54941;52.220;104.306;2023-07-31T00:59:21;95572.88;;;23.14;66.67
68141;BME280;54941;52.220;104.306;2023-07-31T01:01:47;95579.34;;;23.23;66.96
68141;BME280;54941;52.220;104.306;2023-07-31T01:04:15;95571.84;;;23.26;66.55
68141;BME280;54941;52.220;104.306;2023-07-31T01:06:46;95573.00;;;23.45;66.87
68141;BME280;54941;52.220;104.306;2023-07-31T01:09:20;95570.03;;;24.51;62.64
68141;BME280;54941;52.220;104.306;2023-07-31T01:11:52;95563.66;;;24.21;64.09
68141;BME280;54941;52.220;104.306;2023-07-31T01:14:18;95570.75;;;24.43;63.70
68141;BME280;54941;52.220;104.306;2023-07-31T01:16:45;95572.75;;;24.20;64.48
68141;BME280;54941;52.220;104.306;2023-07-31T01:19:15;95561.69;;;24.23;64.45
68141;BME280;54941;52.220;104.306;2023-07-31T01:22:12;95565.09;;;24.25;64.50
68141;BME280;54941;52.220;104.306;2023-07-31T01:24:49;95563.50;;;24.43;64.14
68141;BME280;54941;52.220;104.306;2023-07-31T01:27:25;95561.16;;;24.69;62.85
68141;BME280;54941;52.220;104.306;2023-07-31T01:29:58;95568.69;;;24.66;62.36
68141;BME280;54941;52.220;104.306;2023-07-31T01:32:28;95564.00;;;24.68;62.45
68141;BME280;54941;52.220;104.306;2023-07-31T01:34:55;95566.34;;;25.11;60.80
68141;BME280;54941;52.220;104.306;2023-07-31T01:37:28;95568.50;;;24.58;62.66
68141;BME280;54941;52.220;104.306;2023-07-31T01:39:54;95565.50;;;24.51;62.86
68141;BME280;54941;52.220;104.306;2023-07-31T01:42:22;95568.06;;;24.43;63.79
68141;BME280;54941;52.220;104.306;2023-07-31T01:44:48;95573.56;;;24.91;60.84
68141;BME280;54941;52.220;104.306;2023-07-31T01:47:15;95566.09;;;24.55;62.76
68141;BME280;54941;52.220;104.306;2023-07-31T01:49:41;95567.91;;;24.44;64.61
68141;BME280;54941;52.220;104.306;2023-07-31T01:52:09;95563.91;;;25.47;60.55
68141;BME280;54941;52.220;104.306;2023-07-31T01:54:35;95559.53;;;25.26;61.54
68141;BME280;54941;52.220;104.306;2023-07-31T01:57:01;95565.09;;;25.25;61.57
68141;BME280;54941;52.220;104.306;2023-07-31T01:59:29;95555.53;;;25.59;60.05
68141;BME280;54941;52.220;104.306;2023-07-31T02:01:55;95560.25;;;25.19;61.46
68141;BME280;54941;52.220;104.306;2023-07-31T02:04:22;95555.78;;;24.98;61.62
68141;BME280;54941;52.220;104.306;2023-07-31T02:06:48;95554.59;;;24.72;62.69
68141;BME280;54941;52.220;104.306;2023-07-31T02:09:14;95559.38;;;25.09;62.52
68141;BME280;54941;52.220;104.306;2023-07-31T02:11:41;95556.25;;;25.23;61.44
68141;BME280;54941;52.220;104.306;2023-07-31T02:14:07;95549.69;;;25.74;60.72
68141;BME280;54941;52.220;104.306;2023-07-31T02:16:35;95554.47;;;25.99;59.75
68141;BME280;54941;52.220;104.306;2023-07-31T02:19:01;95556.19;;;26.37;58.22
68141;BME280;54941;52.220;104.306;2023-07-31T02:21:27;95545.53;;;26.26;58.15
68141;BME280;54941;52.220;104.306;2023-07-31T02:23:54;95549.63;;;26.67;57.57
68141;BME280;54941;52.220;104.306;2023-07-31T02:26:20;95544.31;;;26.48;57.72
68141;BME280;54941;52.220;104.306;2023-07-31T02:28:46;95544.28;;;26.21;56.84
68141;BME280;54941;52.220;104.306;2023-07-31T02:31:13;95546.28;;;26.18;57.10
68141;BME280;54941;52.220;104.306;2023-07-31T02:33:40;95550.16;;;26.53;57.31
68141;BME280;54941;52.220;104.306;2023-07-31T02:36:09;95548.84;;;26.20;57.55
68141;BME280;54941;52.220;104.306;2023-07-31T02:38:35;95539.44;;;26.14;57.40
68141;BME280;54941;52.220;104.306;2023-07-31T02:41:01;95546.44;;;26.54;55.76
68141;BME280;54941;52.220;104.306;2023-07-31T02:43:27;95546.88;;;26.50;55.32
68141;BME280;54941;52.220;104.306;2023-07-31T02:45:54;95547.69;;;25.76;58.24
68141;BME280;54941;52.220;104.306;2023-07-31T02:48:20;95542.47;;;26.02;58.58
68141;BME280;54941;52.220;104.306;2023-07-31T02:50:48;95544.13;;;26.22;57.22
68141;BME280;54941;52.220;104.306;2023-07-31T02:53:14;95537.28;;;25.81;58.82
68141;BME280;54941;52.220;104.306;2023-07-31T02:55:41;95551.44;;;25.17;59.78
68141;BME280;54941;52.220;104.306;2023-07-31T02:58:07;95545.44;;;25.42;58.96
68141;BME280;54941;52.220;104.306;2023-07-31T03:00:33;95547.47;;;26.06;57.09
68141;BME280;54941;52.220;104.306;2023-07-31T03:03:00;95542.25;;;25.95;57.17
68141;BME280;54941;52.220;104.306;2023-07-31T03:05:26;95540.63;;;26.02;57.47
68141;BME280;54941;52.220;104.306;2023-07-31T03:07:54;95545.56;;;25.70;58.36
68141;BME280;54941;52.220;104.306;2023-07-31T03:10:20;95538.84;;;25.83;58.55
68141;BME280;54941;52.220;104.306;2023-07-31T03:12:47;95547.69;;;26.23;57.63
68141;BME280;54941;52.220;104.306;2023-07-31T03:15:13;95543.38;;;25.93;56.73
68141;BME280;54941;52.220;104.306;2023-07-31T03:17:39;95543.13;;;25.76;58.15
68141;BME280;54941;52.220;104.306;2023-07-31T03:20:09;95548.72;;;26.12;55.75
68141;BME280;54941;52.220;104.306;2023-07-31T03:22:35;95546.09;;;27.12;53.42
68141;BME280;54941;52.220;104.306;2023-07-31T03:25:04;95553.47;;;26.74;53.93
68141;BME280;54941;52.220;104.306;2023-07-31T03:27:35;95548.22;;;26.91;52.71
68141;BME280;54941;52.220;104.306;2023-07-31T03:30:01;95549.44;;;26.51;54.64
68141;BME280;54941;52.220;104.306;2023-07-31T03:32:32;95543.34;;;26.02;56.24
68141;BME280;54941;52.220;104.306;2023-07-31T03:34:59;95535.69;;;26.62;54.83
68141;BME280;54941;52.220;104.306;2023-07-31T03:37:27;95532.91;;;26.72;55.32
68141;BME280;54941;52.220;104.306;2023-07-31T03:39:53;95529.44;;;26.80;54.46
68141;BME280;54941;52.220;104.306;2023-07-31T03:42:21;95529.75;;;25.75;56.90
68141;BME280;54941;52.220;104.306;2023-07-31T03:44:47;95529.22;;;26.45;55.28
68141;BME280;54941;52.220;104.306;2023-07-31T03:47:14;95528.53;;;26.89;53.75
68141;BME280;54941;52.220;104.306;2023-07-31T03:49:40;95530.03;;;26.18;54.42
68141;BME280;54941;52.220;104.306;2023-07-31T03:52:07;95529.28;;;26.63;53.55
68141;BME280;54941;52.220;104.306;2023-07-31T03:54:33;95526.34;;;26.74;52.32
68141;BME280;54941;52.220;104.306;2023-07-31T03:56:59;95521.84;;;26.65;54.01
68141;BME280;54941;52.220;104.306;2023-07-31T03:59:27;95518.78;;;27.31;51.96
68141;BME280;54941;52.220;104.306;2023-07-31T04:01:53;95515.41;;;26.66;53.09
68141;BME280;54941;52.220;104.306;2023-07-31T04:04:20;95514.88;;;26.81;52.45
68141;BME280;54941;52.220;104.306;2023-07-31T04:06:46;95512.38;;;27.15;51.87
68141;BME280;54941;52.220;104.306;2023-07-31T04:09:12;95515.25;;;27.13;53.29
68141;BME280;54941;52.220;104.306;2023-07-31T04:11:38;95514.06;;;26.98;53.04
68141;BME280;54941;52.220;104.306;2023-07-31T04:14:05;95507.81;;;27.15;53.82
68141;BME280;54941;52.220;104.306;2023-07-31T04:16:32;95506.97;;;27.32;51.96
68141;BME280;54941;52.220;104.306;2023-07-31T04:18:59;95504.03;;;27.52;50.50
68141;BME280;54941;52.220;104.306;2023-07-31T04:21:25;95513.25;;;27.15;53.06
68141;BME280;54941;52.220;104.306;2023-07-31T04:23:51;95509.56;;;26.89;53.83
68141;BME280;54941;52.220;104.306;2023-07-31T04:26:18;95506.59;;;27.10;53.27
68141;BME280;54941;52.220;104.306;2023-07-31T04:28:44;95507.38;;;26.92;53.97
68141;BME280;54941;52.220;104.306;2023-07-31T04:31:16;95501.81;;;26.49;55.44
68141;BME280;54941;52.220;104.306;2023-07-31T04:33:43;95495.66;;;26.74;51.78
68141;BME280;54941;52.220;104.306;2023-07-31T04:36:10;95492.56;;;26.69;53.56
68141;BME280;54941;52.220;104.306;2023-07-31T04:38:36;95498.94;;;26.95;54.09
68141;BME280;54941;52.220;104.306;2023-07-31T04:41:02;95491.16;;;27.54;52.35
68141;BME280;54941;52.220;104.306;2023-07-31T04:43:31;95488.50;;;27.00;52.10
68141;BME280;54941;52.220;104.306;2023-07-31T04:45:57;95492.22;;;26.99;52.52
68141;BME280;54941;52.220;104.306;2023-07-31T04:48:24;95487.22;;;27.22;51.43
68141;BME280;54941;52.220;104.306;2023-07-31T04:50:52;95479.84;;;27.15;52.01
68141;BME280;54941;52.220;104.306;2023-07-31T04:53:18;95475.97;;;27.35;51.52
68141;BME280;54941;52.220;104.306;2023-07-31T04:55:45;95482.31;;;26.90;52.61
68141;BME280;54941;52.220;104.306;2023-07-31T04:58:11;95478.66;;;26.82;52.79
68141;BME280;54941;52.220;104.306;2023-07-31T05:00:37;95479.66;;;26.63;54.53
68141;BME280;54941;52.220;104.306;2023-07-31T05:03:03;95479.44;;;27.27;52.98
68141;BME280;54941;52.220;104.306;2023-07-31T05:05:30;95477.41;;;27.99;49.98
68141;BME280;54941;52.220;104.306;2023-07-31T05:07:57;95475.53;;;27.92;51.29
68141;BME280;54941;52.220;104.306;2023-07-31T05:10:24;95479.22;;;28.51;49.83
68141;BME280;54941;52.220;104.306;2023-07-31T05:12:50;95480.63;;;28.79;50.63
68141;BME280;54941;52.220;104.306;2023-07-31T05:15:16;95470.88;;;29.27;47.79
68141;BME280;54941;52.220;104.306;2023-07-31T05:17:42;95467.72;;;28.81;47.90
68141;BME280;54941;52.220;104.306;2023-07-31T05:20:09;95465.53;;;28.85;48.48
68141;BME280;54941;52.220;104.306;2023-07-31T05:22:36;95469.91;;;28.69;48.39
68141;BME280;54941;52.220;104.306;2023-07-31T05:25:04;95461.59;;;28.63;46.82
68141;BME280;54941;52.220;104.306;2023-07-31T05:27:32;95458.75;;;29.86;44.61
68141;BME280;54941;52.220;104.306;2023-07-31T05:29:58;95454.38;;;29.77;46.02
68141;BME280;54941;52.220;104.306;2023-07-31T05:32:24;95452.44;;;29.94;45.60
68141;BME280;54941;52.220;104.306;2023-07-31T05:34:51;95460.00;;;29.11;47.72
68141;BME280;54941;52.220;104.306;2023-07-31T05:37:18;95460.66;;;29.13;44.65
68141;BME280;54941;52.220;104.306;2023-07-31T05:39:44;95464.75;;;29.09;46.77
68141;BME280;54941;52.220;104.306;2023-07-31T05:42:12;95467.13;;;28.95;47.53
68141;BME280;54941;52.220;104.306;2023-07-31T05:44:39;95467.66;;;29.31;46.94
68141;BME280;54941;52.220;104.306;2023-07-31T05:47:05;95456.06;;;29.38;46.85
68141;BME280;54941;52.220;104.306;2023-07-31T05:49:31;95449.13;;;29.51;47.07
68141;BME280;54941;52.220;104.306;2023-07-31T05:51:59;95446.72;;;29.73;45.86
68141;BME280;54941;52.220;104.306;2023-07-31T05:54:25;95452.47;;;29.86;46.12
68141;BME280;54941;52.220;104.306;2023-07-31T05:56:52;95453.94;;;30.05;44.80
68141;BME280;54941;52.220;104.306;2023-07-31T05:59:19;95445.50;;;29.83;45.93
68141;BME280;54941;52.220;104.306;2023-07-31T06:01:46;95444.69;;;29.67;46.11
68141;BME280;54941;52.220;104.306;2023-07-31T06:04:12;95437.31;;;29.91;46.25
68141;BME280;54941;52.220;104.306;2023-07-31T06:06:38;95436.78;;;29.96;44.88
68141;BME280;54941;52.220;104.306;2023-07-31T06:09:05;95434.97;;;29.80;45.80
68141;BME280;54941;52.220;104.306;2023-07-31T06:11:31;95428.78;;;29.95;46.04
68141;BME280;54941;52.220;104.306;2023-07-31T06:13:57;95434.63;;;29.75;45.85
68141;BME280;54941;52.220;104.306;2023-07-31T06:16:27;95420.53;;;29.63;46.54
68141;BME280;54941;52.220;104.306;2023-07-31T06:18:53;95421.38;;;29.40;46.71
68141;BME280;54941;52.220;104.306;2023-07-31T06:21:20;95413.38;;;29.62;45.38
68141;BME280;54941;52.220;104.306;2023-07-31T06:23:47;95411.53;;;29.22;46.80
68141;BME280;54941;52.220;104.306;2023-07-31T06:26:13;95418.41;;;28.52;48.11
68141;BME280;54941;52.220;104.306;2023-07-31T06:28:42;95408.66;;;29.24;46.17
68141;BME280;54941;52.220;104.306;2023-07-31T06:31:08;95402.53;;;29.14;46.65
68141;BME280;54941;52.220;104.306;2023-07-31T06:33:36;95404.56;;;29.03;47.46
68141;BME280;54941;52.220;104.306;2023-07-31T06:36:06;95402.31;;;28.83;48.32
68141;BME280;54941;52.220;104.306;2023-07-31T06:38:32;95406.59;;;29.26;46.81
68141;BME280;54941;52.220;104.306;2023-07-31T06:40:59;95404.91;;;29.00;47.75
68141;BME280;54941;52.220;104.306;2023-07-31T06:43:25;95405.91;;;28.91;48.14
68141;BME280;54941;52.220;104.306;2023-07-31T06:45:51;95408.31;;;29.11;47.82
68141;BME280;54941;52.220;104.306;2023-07-31T06:48:17;95401.53;;;29.07;48.73
68141;BME280;54941;52.220;104.306;2023-07-31T06:50:45;95396.25;;;28.97;48.87
68141;BME280;54941;52.220;104.306;2023-07-31T06:53:11;95390.94;;;29.44;48.01
68141;BME280;54941;52.220;104.306;2023-07-31T06:55:38;95388.56;;;29.49;47.95
68141;BME280;54941;52.220;104.306;2023-07-31T06:58:04;95388.22;;;29.60;47.87
68141;BME280;54941;52.220;104.306;2023-07-31T07:00:31;95383.13;;;29.49;48.56
68141;BME280;54941;52.220;104.306;2023-07-31T07:02:57;95386.53;;;29.27;48.30
68141;BME280;54941;52.220;104.306;2023-07-31T07:05:24;95385.16;;;29.55;47.17
68141;BME280;54941;52.220;104.306;2023-07-31T07:07:52;95390.38;;;29.73;46.43
68141;BME280;54941;52.220;104.306;2023-07-31T07:10:18;95394.38;;;29.54;46.95
68141;BME280;54941;52.220;104.306;2023-07-31T07:12:45;95383.78;;;29.59;47.65
68141;BME280;54941;52.220;104.306;2023-07-31T07:15:11;95381.53;;;29.71;46.89
68141;BME280;54941;52.220;104.306;2023-07-31T07:17:38;95364.06;;;29.57;47.27
68141;BME280;54941;52.220;104.306;2023-07-31T07:20:08;95363.78;;;29.91;45.22
68141;BME280;54941;52.220;104.306;2023-07-31T07:22:35;95366.41;;;29.69;45.70
68141;BME280;54941;52.220;104.306;2023-07-31T07:25:06;95367.81;;;29.56;45.79
68141;BME280;54941;52.220;104.306;2023-07-31T07:27:32;95369.19;;;29.36;47.28
68141;BME280;54941;52.220;104.306;2023-07-31T07:29:58;95356.22;;;29.62;45.10
68141;BME280;54941;52.220;104.306;2023-07-31T07:32:24;95357.41;;;29.68;40.74
68141;BME280;54941;52.220;104.306;2023-07-31T07:34:51;95348.00;;;29.79;38.45
68141;BME280;54941;52.220;104.306;2023-07-31T07:37:17;95349.16;;;29.84;39.36
68141;BME280;54941;52.220;104.306;2023-07-31T07:39:43;95359.47;;;29.58;36.26
68141;BME280;54941;52.220;104.306;2023-07-31T07:42:11;95354.13;;;29.73;33.62
68141;BME280;54941;52.220;104.306;2023-07-31T07:44:38;95350.06;;;29.77;34.95
68141;BME280;54941;52.220;104.306;2023-07-31T07:47:04;95351.50;;;29.96;34.73
68141;BME280;54941;52.220;104.306;2023-07-31T07:49:31;95346.06;;;29.96;36.46
68141;BME280;54941;52.220;104.306;2023-07-31T07:51:57;95351.31;;;29.97;37.78
68141;BME280;54941;52.220;104.306;2023-07-31T07:54:23;95340.06;;;30.08;35.89
68141;BME280;54941;52.220;104.306;2023-07-31T07:56:50;95345.47;;;30.16;35.92
68141;BME280;54941;52.220;104.306;2023-07-31T07:59:20;95337.34;;;30.08;35.79
68141;BME280;54941;52.220;104.306;2023-07-31T08:01:47;95337.31;;;30.16;38.02
68141;BME280;54941;52.220;104.306;2023-07-31T08:04:13;95340.75;;;30.10;39.80
68141;BME280;54941;52.220;104.306;2023-07-31T08:06:39;95327.59;;;30.22;40.36
68141;BME280;54941;52.220;104.306;2023-07-31T08:09:07;95329.75;;;30.27;41.14
68141;BME280;54941;52.220;104.306;2023-07-31T08:11:37;95328.72;;;30.28;40.24
68141;BME280;54941;52.220;104.306;2023-07-31T08:14:06;95331.06;;;30.62;40.63
68141;BME280;54941;52.220;104.306;2023-07-31T08:16:38;95329.22;;;30.54;40.86
68141;BME280;54941;52.220;104.306;2023-07-31T08:19:04;95325.81;;;30.83;39.74
68141;BME280;54941;52.220;104.306;2023-07-31T08:21:31;95327.75;;;30.74;40.71
68141;BME280;54941;52.220;104.306;2023-07-31T08:23:58;95324.09;;;30.59;40.73
68141;BME280;54941;52.220;104.306;2023-07-31T08:26:26;95318.50;;;30.53;40.94
68141;BME280;54941;52.220;104.306;2023-07-31T08:28:52;95322.44;;;30.50;40.98
68141;BME280;54941;52.220;104.306;2023-07-31T08:31:19;95318.69;;;30.51;39.71
68141;BME280;54941;52.220;104.306;2023-07-31T08:33:47;95318.47;;;30.61;37.62
68141;BME280;54941;52.220;104.306;2023-07-31T08:36:13;95309.28;;;30.54;39.97
68141;BME280;54941;52.220;104.306;2023-07-31T08:38:39;95317.72;;;30.44;39.56
68141;BME280;54941;52.220;104.306;2023-07-31T08:41:06;95312.41;;;30.50;39.16
68141;BME280;54941;52.220;104.306;2023-07-31T08:43:32;95313.84;;;30.38;36.13
68141;BME280;54941;52.220;104.306;2023-07-31T08:45:59;95323.91;;;30.38;35.79
68141;BME280;54941;52.220;104.306;2023-07-31T08:48:27;95309.56;;;30.67;35.47
68141;BME280;54941;52.220;104.306;2023-07-31T08:50:57;95302.38;;;30.74;35.60
68141;BME280;54941;52.220;104.306;2023-07-31T08:53:23;95312.16;;;30.60;36.71
68141;BME280;54941;52.220;104.306;2023-07-31T08:55:52;95316.84;;;30.74;37.19
68141;BME280;54941;52.220;104.306;2023-07-31T08:58:19;95318.53;;;30.75;36.81
68141;BME280;54941;52.220;104.306;2023-07-31T09:00:49;95311.59;;;30.42;37.88
68141;BME280;54941;52.220;104.306;2023-07-31T09:03:18;95313.19;;;29.97;39.77
68141;BME280;54941;52.220;104.306;2023-07-31T09:05:46;95316.41;;;30.09;39.99
68141;BME280;54941;52.220;104.306;2023-07-31T09:08:18;95316.94;;;29.96;40.82
68141;BME280;54941;52.220;104.306;2023-07-31T09:10:45;95312.88;;;29.92;38.72
68141;BME280;54941;52.220;104.306;2023-07-31T09:13:12;95310.28;;;29.68;38.84
68141;BME280;54941;52.220;104.306;2023-07-31T09:15:42;95311.13;;;29.68;38.89
68141;BME280;54941;52.220;104.306;2023-07-31T09:18:10;95317.84;;;29.88;36.47
68141;BME280;54941;52.220;104.306;2023-07-31T09:20:37;95308.25;;;30.01;36.38
68141;BME280;54941;52.220;104.306;2023-07-31T09:23:08;95307.06;;;29.95;36.24
68141;BME280;54941;52.220;104.306;2023-07-31T09:25:36;95313.94;;;29.83;35.71
68141;BME280;54941;52.220;104.306;2023-07-31T09:28:03;95302.22;;;29.82;37.09
68141;BME280;54941;52.220;104.306;2023-07-31T09:30:29;95301.72;;;29.79;36.31
68141;BME280;54941;52.220;104.306;2023-07-31T09:33:01;95301.69;;;29.87;36.20
68141;BME280;54941;52.220;104.306;2023-07-31T09:35:29;95288.22;;;29.85;35.69
68141;BME280;54941;52.220;104.306;2023-07-31T09:37:58;95298.59;;;29.90;36.08
68141;BME280;54941;52.220;104.306;2023-07-31T09:40:29;95296.34;;;30.02;36.06
68141;BME280;54941;52.220;104.306;2023-07-31T09:43:01;95291.22;;;30.07;35.43
68141;BME280;54941;52.220;104.306;2023-07-31T09:45:28;95290.81;;;29.79;36.66
68141;BME280;54941;52.220;104.306;2023-07-31T09:47:56;95284.44;;;29.95;36.27
68141;BME280;54941;52.220;104.306;2023-07-31T09:50:24;95293.09;;;30.06;35.55
68141;BME280;54941;52.220;104.306;2023-07-31T09:52:51;95288.06;;;29.87;36.13
68141;BME280;54941;52.220;104.306;2023-07-31T09:55:18;95283.16;;;29.74;37.34
68141;BME280;54941;52.220;104.306;2023-07-31T09:57:46;95288.16;;;29.62;38.05
68141;BME280;54941;52.220;104.306;2023-07-31T10:00:18;95288.13;;;29.71;36.97
68141;BME280;54941;52.220;104.306;2023-07-31T10:02:46;95285.97;;;29.58;37.59
68141;BME280;54941;52.220;104.306;2023-07-31T10:05:14;95284.31;;;29.41;39.10
68141;BME280;54941;52.220;104.306;2023-07-31T10:07:42;95278.78;;;29.18;39.43
68141;BME280;54941;52.220;104.306;2023-07-31T10:10:08;95277.78;;;28.86;40.63
68141;BME280;54941;52.220;104.306;2023-07-31T10:12:36;95276.75;;;28.87;40.99
68141;BME280;54941;52.220;104.306;2023-07-31T10:15:02;95272.19;;;28.71;41.15
68141;BME280;54941;52.220;104.306;2023-07-31T10:17:35;95273.38;;;28.61;41.39
68141;BME280;54941;52.220;104.306;2023-07-31T10:20:03;95281.16;;;28.56;41.97
68141;BME280;54941;52.220;104.306;2023-07-31T10:22:33;95275.91;;;28.62;42.07
68141;BME280;54941;52.220;104.306;2023-07-31T10:25:01;95281.16;;;28.47;42.78
68141;BME280;54941;52.220;104.306;2023-07-31T10:27:33;95276.41;;;28.41;42.17
68141;BME280;54941;52.220;104.306;2023-07-31T10:30:03;95273.34;;;28.28;42.84
68141;BME280;54941;52.220;104.306;2023-07-31T10:32:36;95272.00;;;28.40;42.32
68141;BME280;54941;52.220;104.306;2023-07-31T10:35:04;95285.91;;;28.45;42.03
68141;BME280;54941;52.220;104.306;2023-07-31T10:37:37;95285.22;;;28.35;42.57
68141;BME280;54941;52.220;104.306;2023-07-31T10:40:05;95287.34;;;27.99;43.52
68141;BME280;54941;52.220;104.306;2023-07-31T10:42:34;95290.25;;;28.06;43.89
68141;BME280;54941;52.220;104.306;2023-07-31T10:45:03;95294.44;;;27.84;44.13
68141;BME280;54941;52.220;104.306;2023-07-31T10:47:37;95286.81;;;27.79;44.21
68141;BME280;54941;52.220;104.306;2023-07-31T10:50:17;95285.69;;;27.64;45.14
68141;BME280;54941;52.220;104.306;2023-07-31T10:52:46;95284.09;;;27.45;45.34
68141;BME280;54941;52.220;104.306;2023-07-31T10:55:30;95279.81;;;27.35;45.66
68141;BME280;54941;52.220;104.306;2023-07-31T10:57:58;95277.03;;;27.26;45.73
68141;BME280;54941;52.220;104.306;2023-07-31T11:00:31;95278.13;;;27.08;45.83
68141;BME280;54941;52.220;104.306;2023-07-31T11:03:03;95267.75;;;27.03;46.31
68141;BME280;54941;52.220;104.306;2023-07-31T11:05:50;95273.94;;;26.95;46.57
68141;BME280;54941;52.220;104.306;2023-07-31T11:08:19;95271.72;;;26.91;46.44
68141;BME280;54941;52.220;104.306;2023-07-31T11:10:46;95266.94;;;26.85;47.07
68141;BME280;54941;52.220;104.306;2023-07-31T11:13:13;95271.31;;;26.78;47.20
68141;BME280;54941;52.220;104.306;2023-07-31T11:15:40;95261.63;;;26.75;47.00
68141;BME280;54941;52.220;104.306;2023-07-31T11:18:08;95270.91;;;26.72;47.48
68141;BME280;54941;52.220;104.306;2023-07-31T11:20:35;95264.09;;;26.42;48.38
68141;BME280;54941;52.220;104.306;2023-07-31T11:23:02;95266.00;;;26.50;48.17
68141;BME280;54941;52.220;104.306;2023-07-31T11:25:30;95264.25;;;26.41;48.14
68141;BME280;54941;52.220;104.306;2023-07-31T11:28:03;95261.75;;;26.30;48.47
68141;BME280;54941;52.220;104.306;2023-07-31T11:30:29;95267.41;;;26.18;48.94
68141;BME280;54941;52.220;104.306;2023-07-31T11:32:56;95260.22;;;26.09;49.42
68141;BME280;54941;52.220;104.306;2023-07-31T11:35:24;95264.00;;;25.99;49.18
68141;BME280;54941;52.220;104.306;2023-07-31T11:37:50;95272.22;;;26.07;49.15
68141;BME280;54941;52.220;104.306;2023-07-31T11:40:17;95268.56;;;25.98;49.47
68141;BME280;54941;52.220;104.306;2023-07-31T11:42:44;95285.41;;;25.92;50.21
68141;BME280;54941;52.220;104.306;2023-07-31T11:45:10;95281.94;;;26.00;49.27
68141;BME280;54941;52.220;104.306;2023-07-31T11:47:39;95276.91;;;25.87;49.47
68141;BME280;54941;52.220;104.306;2023-07-31T11:50:10;95278.59;;;25.88;48.95
68141;BME280;54941;52.220;104.306;2023-07-31T11:52:41;95275.22;;;25.86;49.31
68141;BME280;54941;52.220;104.306;2023-07-31T11:55:10;95280.94;;;25.83;49.50
68141;BME280;54941;52.220;104.306;2023-07-31T11:57:39;95278.50;;;25.80;49.98
68141;BME280;54941;52.220;104.306;2023-07-31T12:00:07;95275.34;;;25.57;50.92
68141;BME280;54941;52.220;104.306;2023-07-31T12:02:34;95275.34;;;25.57;50.94
68141;BME280;54941;52.220;104.306;2023-07-31T12:05:01;95280.72;;;25.39;51.73
68141;BME280;54941;52.220;104.306;2023-07-31T12:07:47;95273.00;;;25.44;51.93
68141;BME280;54941;52.220;104.306;2023-07-31T12:10:27;95277.31;;;25.37;52.05
68141;BME280;54941;52.220;104.306;2023-07-31T12:13:02;95272.91;;;25.36;52.16
68141;BME280;54941;52.220;104.306;2023-07-31T12:15:39;95279.28;;;25.08;53.58
68141;BME280;54941;52.220;104.306;2023-07-31T12:18:09;95278.03;;;25.02;53.83
68141;BME280;54941;52.220;104.306;2023-07-31T12:20:41;95289.09;;;25.09;53.64
68141;BME280;54941;52.220;104.306;2023-07-31T12:23:13;95283.44;;;25.02;54.09
68141;BME280;54941;52.220;104.306;2023-07-31T12:25:39;95280.53;;;24.66;58.41
68141;BME280;54941;52.220;104.306;2023-07-31T12:28:06;95299.81;;;23.84;64.55
68141;BME280;54941;52.220;104.306;2023-07-31T12:30:34;95297.69;;;23.28;67.26
68141;BME280;54941;52.220;104.306;2023-07-31T12:33:03;95301.50;;;22.95;68.39
68141;BME280;54941;52.220;104.306;2023-07-31T12:35:35;95301.91;;;22.70;68.71
68141;BME280;54941;52.220;104.306;2023-07-31T12:38:02;95299.22;;;22.91;64.08
68141;BME280;54941;52.220;104.306;2023-07-31T12:40:29;95301.59;;;23.55;60.66
68141;BME280;54941;52.220;104.306;2023-07-31T12:42:56;95295.44;;;23.93;59.36